Grand Island, NE

4:14 AM CST on February 11, 2016 (GMT -0600)
Riverside/Barr | | Change Station
CLOSE
Current Station
Personal Weather Station
Location: Grand Island, NE
Elevation: 1856 ft
Nearby Weather Stations

Elev 1856 ft 40.90 °N, 98.35 °W | Updated 0 second ago

Overcast
Overcast
26.2 °F
Feels Like 26 °F
N
1.0
Wind Variable Wind from NNE
Gusts 9.0 mph

Today
High -- | Low -- °F
--% Chance of Precip.
Yesterday
High -- | Low -- °F
Precip. -- in
Pressure 30.27 in
Visibility 6.0 miles
Clouds Overcast 1000 ft
Windchill 26 °F
Dew Point 23 °F
Humidity 87%
Rainfall 0.00 in
Snow Depth Not available.
7:33 AM 6:02 PM
Waxing Crescent, 11% visible
METAR KGRI 110953Z AUTO 36006KT 6SM BR OVC010 M03/M05 A3021 RMK AO2 SLP248 T10331050
Pressure 30.27 in
Visibility 6.0 miles
Clouds Overcast 1000 ft
Windchill 26 °F
Dew Point 23 °F
Humidity 87%
Rainfall 0.00 in
Snow Depth Not available.
7:33 AM 6:02 PM
Waxing Crescent, 11% visible
METAR KGRI 110953Z AUTO 36006KT 6SM BR OVC010 M03/M05 A3021 RMK AO2 SLP248 T10331050

10-Day Weather Forecast

Almanac

Astronomy

Feb. 11, 2016 Rise Set
Actual Time
Civil Twilight
Nautical Twilight
Astronomical Twilight
Moon
Length of Visible Light
Length of Day
Tomorrow will be .
, % of the Moon is Illuminated

Today's Extremes

State Highs State Lows

Community

WunderPhotos

Upload Photos

1,892,030 photos uploaded!

WunderBlog® & News

Nearby

Air Quality

  Air Quality AQ Index Pollutant
Not available.

Snow Depth

Station Depth Elevation

Earthquake Activity

City Distance Mag. Time & Date
Minimum magnitude displayed is 2.5.

Coastal Water Temperatures

Place Temperature

Stations

Nearby Weather Stations

Station Location Temp. Windchill Dew Point Humidity Wind Precip. Elev Updated Type
                   

Watches & Warnings

There are currently no watches in effect.